createdAt,value
2022-11-05T00:00:50.307Z,2.13
2022-11-05T00:03:35.396Z,1.90
2022-11-05T00:06:20.352Z,2.40
2022-11-05T00:09:05.289Z,1.97
2022-11-05T00:11:50.085Z,1.93
2022-11-05T00:14:35.052Z,1.60
2022-11-05T00:17:01.480Z,1.97
2022-11-05T00:19:27.881Z,2.20
2022-11-05T00:22:12.870Z,1.73
2022-11-05T00:24:58.068Z,2.00
2022-11-05T00:27:24.516Z,1.80
2022-11-05T00:29:50.983Z,1.83
2022-11-05T00:32:17.517Z,1.77
2022-11-05T00:34:43.914Z,1.97
2022-11-05T00:37:10.320Z,1.83
2022-11-05T00:39:37.154Z,2.03
2022-11-05T00:42:22.602Z,2.00
2022-11-05T00:45:00.954Z,1.83
2022-11-05T00:47:46.024Z,1.70
2022-11-05T00:50:13.013Z,1.50
2022-11-05T00:55:44.768Z,1.50
2022-11-05T00:58:17.196Z,1.87
2022-11-05T01:00:50.122Z,1.50
2022-11-05T01:03:19.247Z,1.73
2022-11-05T01:06:13.012Z,1.60
2022-11-05T01:08:41.214Z,1.70
2022-11-05T01:11:34.708Z,1.50
2022-11-05T01:14:05.137Z,1.43
2022-11-05T01:16:32.054Z,1.40
2022-11-05T01:18:58.685Z,1.63
2022-11-05T01:21:25.170Z,1.40
2022-11-05T01:23:51.813Z,1.67
2022-11-05T01:26:18.321Z,1.60
2022-11-05T01:28:44.907Z,1.40
2022-11-05T01:31:11.579Z,2.37
2022-11-05T01:33:38.090Z,2.00
2022-11-05T01:36:05.077Z,1.43
2022-11-05T01:38:33.717Z,1.57
2022-11-05T01:41:00.465Z,1.40
2022-11-05T01:43:27.118Z,1.20
2022-11-05T01:45:58.321Z,1.47
2022-11-05T01:48:33.374Z,1.47
2022-11-05T01:51:06.960Z,1.30
2022-11-05T01:53:38.719Z,1.50
2022-11-05T01:56:11.604Z,1.77
2022-11-05T01:58:42.936Z,1.30
2022-11-05T02:01:09.685Z,2.17
2022-11-05T02:03:36.381Z,1.63
2022-11-05T02:06:03.425Z,1.70
2022-11-05T02:08:36.797Z,1.57
2022-11-05T02:11:03.631Z,1.83
2022-11-05T02:13:30.195Z,1.67
2022-11-05T02:16:13.552Z,1.57
2022-11-05T02:18:40.101Z,2.00
2022-11-05T02:21:35.894Z,2.17
2022-11-05T02:24:11.337Z,1.60
2022-11-05T02:26:58.150Z,1.73
2022-11-05T02:29:42.615Z,2.00
2022-11-05T02:32:25.906Z,2.33
2022-11-05T02:35:07.876Z,2.00
2022-11-05T02:37:51.940Z,1.80
2022-11-05T02:40:28.720Z,2.43
2022-11-05T02:43:15.292Z,1.50
2022-11-05T02:46:00.453Z,2.43
2022-11-05T02:48:42.901Z,1.83
2022-11-05T02:51:18.646Z,2.23
2022-11-05T02:53:50.964Z,2.00
2022-11-05T02:56:34.207Z,2.40
2022-11-05T02:59:00.685Z,2.17
2022-11-05T03:01:27.385Z,2.10
2022-11-05T03:04:00.628Z,2.30
2022-11-05T03:06:45.972Z,2.43
2022-11-05T03:09:34.203Z,2.50
2022-11-05T03:12:25.320Z,1.77
2022-11-05T03:15:10.903Z,2.00
2022-11-05T03:18:08.534Z,2.20
2022-11-05T03:21:04.547Z,2.03
2022-11-05T03:23:42.918Z,2.23
2022-11-05T03:26:26.413Z,2.40
2022-11-05T03:29:01.977Z,2.20
2022-11-05T03:31:30.953Z,2.60
2022-11-05T03:34:01.124Z,2.50
2022-11-05T03:36:41.415Z,2.57
2022-11-05T03:39:15.130Z,2.97
2022-11-05T03:41:47.015Z,2.40
2022-11-05T03:44:22.135Z,3.13
2022-11-05T03:46:50.933Z,2.10
2022-11-05T03:49:25.244Z,2.90
2022-11-05T03:52:03.085Z,2.40
2022-11-05T03:54:29.891Z,2.70
2022-11-05T03:57:11.507Z,2.27
2022-11-05T03:59:45.894Z,2.60
2022-11-05T04:02:14.343Z,2.90
2022-11-05T04:04:41.702Z,2.20
2022-11-05T04:07:28.865Z,3.40
2022-11-05T04:10:13.880Z,2.37
2022-11-05T04:12:59.106Z,2.43
2022-11-05T04:15:25.932Z,2.07
2022-11-05T04:17:52.806Z,2.43
2022-11-05T04:20:37.781Z,3.10
2022-11-05T04:23:25.348Z,2.70
2022-11-05T04:25:51.991Z,2.83
2022-11-05T04:28:19.409Z,3.00
2022-11-05T04:30:46.002Z,3.00
2022-11-05T04:33:15.418Z,3.37
2022-11-05T04:35:47.034Z,3.03
2022-11-05T04:38:19.086Z,2.80
2022-11-05T04:40:50.670Z,2.97
2022-11-05T04:43:19.564Z,3.10
2022-11-05T04:45:46.601Z,2.90
2022-11-05T04:48:13.755Z,2.90
2022-11-05T04:50:40.450Z,3.07
2022-11-05T04:53:06.982Z,3.20
2022-11-05T04:55:33.506Z,2.50
2022-11-05T04:57:59.997Z,3.03
2022-11-05T05:00:26.536Z,2.80
2022-11-05T05:02:53.087Z,3.07
2022-11-05T05:05:19.846Z,2.63
2022-11-05T05:07:46.571Z,2.43
2022-11-05T05:10:13.595Z,2.87
2022-11-05T05:12:40.355Z,2.40
2022-11-05T05:15:07.298Z,2.50
2022-11-05T05:17:34.200Z,2.37
2022-11-05T05:20:19.536Z,2.70
2022-11-05T05:22:52.999Z,2.40
2022-11-05T05:25:19.561Z,2.40
2022-11-05T05:27:46.072Z,2.33
2022-11-05T05:30:12.949Z,3.03
2022-11-05T05:32:39.547Z,3.10
2022-11-05T05:35:06.440Z,2.57
2022-11-05T05:37:32.986Z,2.30
2022-11-05T05:39:59.497Z,2.37
2022-11-05T05:42:26.265Z,2.80
2022-11-05T05:44:52.936Z,2.97
2022-11-05T05:47:19.398Z,3.03
2022-11-05T05:49:46.071Z,2.60
2022-11-05T05:52:14.919Z,3.03
2022-11-05T05:54:43.133Z,3.07
2022-11-05T05:57:10.213Z,3.53
2022-11-05T05:59:36.968Z,2.50
2022-11-05T06:02:05.985Z,2.60
2022-11-05T06:04:32.750Z,2.70
2022-11-05T06:07:01.735Z,2.40
2022-11-05T06:09:28.749Z,2.57
2022-11-05T06:11:55.331Z,2.53
2022-11-05T06:14:22.124Z,2.50
2022-11-05T06:16:48.835Z,2.47
2022-11-05T06:19:15.609Z,3.37
2022-11-05T06:21:42.341Z,2.57
2022-11-05T06:24:09.215Z,3.70
2022-11-05T06:26:35.854Z,3.50
2022-11-05T06:29:02.675Z,3.30
2022-11-05T06:31:29.285Z,3.97
2022-11-05T06:33:55.939Z,3.60
2022-11-05T06:36:22.710Z,3.17
2022-11-05T06:38:49.521Z,3.30
2022-11-05T06:41:16.103Z,3.70
2022-11-05T06:43:43.564Z,3.13
2022-11-05T06:46:11.431Z,3.80
2022-11-05T06:48:39.278Z,3.40
2022-11-05T06:51:09.560Z,3.50
2022-11-05T06:53:36.656Z,3.40
2022-11-05T06:56:05.646Z,3.40
2022-11-05T06:58:32.799Z,3.37
2022-11-05T07:01:11.992Z,3.07
2022-11-05T07:03:39.528Z,3.63
2022-11-05T07:06:07.297Z,4.20
2022-11-05T07:08:35.226Z,3.67
2022-11-05T07:11:02.043Z,3.73
2022-11-05T07:13:28.884Z,3.70
2022-11-05T07:15:56.492Z,3.67
2022-11-05T07:18:23.500Z,3.43
2022-11-05T07:20:50.379Z,3.57
2022-11-05T07:23:17.242Z,4.70
2022-11-05T07:25:44.049Z,3.97
2022-11-05T07:28:11.492Z,4.90
2022-11-05T07:30:38.534Z,4.30
2022-11-05T07:33:05.115Z,4.90
2022-11-05T07:35:37.187Z,3.90
2022-11-05T07:38:17.963Z,4.90
2022-11-05T07:40:53.407Z,4.63
2022-11-05T07:43:20.554Z,4.50
2022-11-05T07:45:47.756Z,4.80
2022-11-05T07:48:14.522Z,6.07
2022-11-05T07:50:44.380Z,4.73
2022-11-05T07:53:16.193Z,5.43
2022-11-05T07:55:44.410Z,4.50
2022-11-05T07:58:11.805Z,4.87
2022-11-05T08:00:38.701Z,5.10
2022-11-05T08:03:20.440Z,5.00
2022-11-05T08:06:18.256Z,4.80
2022-11-05T08:09:05.069Z,5.00
2022-11-05T08:25:50.536Z,4.70
2022-11-05T08:28:17.059Z,5.00
2022-11-05T08:30:43.472Z,5.60
2022-11-05T08:33:12.858Z,4.70
2022-11-05T08:35:40.177Z,4.50
2022-11-05T08:38:08.991Z,5.13
2022-11-05T08:40:36.812Z,4.73
2022-11-05T08:43:06.756Z,5.20
2022-11-05T08:45:34.828Z,5.60
2022-11-05T08:48:05.086Z,5.53
2022-11-05T08:50:32.072Z,5.33
2022-11-05T08:52:58.700Z,5.33
2022-11-05T08:55:25.824Z,4.63
2022-11-05T08:57:56.641Z,5.73
2022-11-05T09:00:23.628Z,4.27
2022-11-05T09:02:50.045Z,5.70
2022-11-05T09:05:16.589Z,5.93
2022-11-05T09:07:43.050Z,5.40
2022-11-05T09:10:09.756Z,5.97
2022-11-05T09:12:36.133Z,4.90
2022-11-05T09:15:02.658Z,4.50
2022-11-05T09:17:29.180Z,4.37
2022-11-05T09:19:55.592Z,4.20
2022-11-05T09:22:22.062Z,3.80
2022-11-05T09:24:48.486Z,3.53
2022-11-05T09:27:15.257Z,3.47
2022-11-05T09:29:42.380Z,3.60
2022-11-05T09:32:09.281Z,3.57
2022-11-05T09:34:36.079Z,3.57
2022-11-05T09:37:02.642Z,3.57
2022-11-05T09:39:29.109Z,3.30
2022-11-05T09:42:02.528Z,3.60
2022-11-05T09:44:40.251Z,3.60
2022-11-05T09:47:14.636Z,3.00
2022-11-05T09:49:50.881Z,3.67
2022-11-05T09:52:35.358Z,3.87
2022-11-05T09:55:07.114Z,3.73
2022-11-05T09:57:48.951Z,3.47
2022-11-05T10:00:19.082Z,3.30
2022-11-05T10:02:55.713Z,3.13
2022-11-05T10:05:24.569Z,3.50
2022-11-05T10:07:55.232Z,2.90
2022-11-05T10:10:41.898Z,3.47
2022-11-05T10:13:32.433Z,3.67
2022-11-05T10:16:20.427Z,4.00
2022-11-05T10:19:14.923Z,3.63
2022-11-05T10:22:05.632Z,3.93
2022-11-05T10:24:28.255Z,3.60
2022-11-05T10:26:55.723Z,3.47
2022-11-05T10:29:29.342Z,4.10
2022-11-05T10:32:01.675Z,3.63
2022-11-05T10:34:33.452Z,3.87
2022-11-05T10:37:00.386Z,3.43
2022-11-05T10:39:29.953Z,3.47
2022-11-05T10:42:45.279Z,3.50
2022-11-05T10:45:25.483Z,3.40
2022-11-05T10:47:54.878Z,3.13
2022-11-05T10:50:30.197Z,3.27
2022-11-05T10:53:03.426Z,3.80
2022-11-05T10:55:33.311Z,3.63
2022-11-05T10:58:17.947Z,3.10
2022-11-05T11:00:59.759Z,3.13
2022-11-05T11:03:34.719Z,3.27
2022-11-05T11:06:20.379Z,3.13
2022-11-05T11:08:48.767Z,3.57
2022-11-05T11:11:33.100Z,3.30
2022-11-05T11:14:19.186Z,3.20
2022-11-05T11:16:48.354Z,3.07
2022-11-05T11:19:25.466Z,3.70
2022-11-05T11:22:13.386Z,3.20
2022-11-05T11:24:41.272Z,3.30
2022-11-05T11:27:14.242Z,2.77
2022-11-05T11:29:48.162Z,3.17
2022-11-05T11:32:19.380Z,3.33
2022-11-05T11:34:51.381Z,3.10
2022-11-05T11:37:27.778Z,2.90
2022-11-05T11:40:02.058Z,3.77
2022-11-05T11:42:34.769Z,3.30
2022-11-05T11:45:14.419Z,3.10
2022-11-05T11:47:44.439Z,3.30
2022-11-05T11:50:31.104Z,3.17
2022-11-05T11:53:16.992Z,2.97
2022-11-05T11:56:12.489Z,3.10
2022-11-05T11:58:53.987Z,2.87
2022-11-05T12:01:23.524Z,2.90
2022-11-05T12:04:41.054Z,2.60
2022-11-05T12:07:19.306Z,2.30
2022-11-05T12:10:10.028Z,2.40
2022-11-05T12:13:14.506Z,2.80
2022-11-05T12:15:57.691Z,2.90
2022-11-05T12:18:33.048Z,3.40
2022-11-05T12:21:14.089Z,2.77
2022-11-05T12:23:46.245Z,3.10
2022-11-05T12:26:57.562Z,2.60
2022-11-05T12:29:35.944Z,3.00
2022-11-05T12:32:08.610Z,2.90
2022-11-05T12:34:50.291Z,3.20
2022-11-05T12:37:30.721Z,3.47
2022-11-05T12:40:21.998Z,3.53
2022-11-05T12:43:11.697Z,3.27
2022-11-05T12:45:47.705Z,3.20
2022-11-05T12:48:37.047Z,3.70
2022-11-05T12:51:37.553Z,3.43
2022-11-05T12:54:22.295Z,3.53
2022-11-05T12:56:57.576Z,3.13
2022-11-05T12:59:57.020Z,2.97
2022-11-05T13:02:48.966Z,2.73
2022-11-05T13:05:25.470Z,2.10
2022-11-05T13:08:14.833Z,2.30
2022-11-05T13:10:46.441Z,2.20
2022-11-05T13:13:42.209Z,1.70
2022-11-05T13:16:24.311Z,2.30
2022-11-05T13:18:55.043Z,2.20
2022-11-05T13:21:24.701Z,2.30
2022-11-05T13:23:56.902Z,2.10
2022-11-05T13:26:43.126Z,2.80
2022-11-05T13:29:34.150Z,2.73
2022-11-05T13:32:17.915Z,2.33
2022-11-05T13:34:44.552Z,2.53
2022-11-05T13:37:31.841Z,2.70
2022-11-05T13:40:08.424Z,2.80
2022-11-05T13:42:44.019Z,3.07
2022-11-05T13:45:38.996Z,3.20
2022-11-05T13:48:23.989Z,3.20
2022-11-05T13:51:03.149Z,3.90
2022-11-05T13:53:54.620Z,3.10
2022-11-05T13:57:00.306Z,3.63
2022-11-05T13:59:56.361Z,3.27
2022-11-05T14:02:28.865Z,3.70
2022-11-05T14:05:01.315Z,3.13
2022-11-05T14:07:32.883Z,3.47
2022-11-05T14:10:24.693Z,3.23
2022-11-05T14:12:54.496Z,3.60
2022-11-05T14:15:26.922Z,3.23
2022-11-05T14:18:26.912Z,3.50
2022-11-05T14:21:02.656Z,4.07
2022-11-05T14:23:50.838Z,3.67
2022-11-05T14:26:24.745Z,4.10
2022-11-05T14:29:20.396Z,3.87
2022-11-05T14:32:07.943Z,4.07
2022-11-05T14:35:05.806Z,3.60
2022-11-05T14:37:33.655Z,3.60
2022-11-05T14:40:19.208Z,3.70
2022-11-05T14:42:51.783Z,4.03
2022-11-05T14:45:31.470Z,3.50
2022-11-05T14:48:00.507Z,3.57
2022-11-05T14:50:41.825Z,3.80
2022-11-05T14:53:26.248Z,3.60
2022-11-05T14:56:14.424Z,3.57
2022-11-05T14:58:42.817Z,3.10
2022-11-05T15:01:32.186Z,4.10
2022-11-05T15:04:26.508Z,3.57
2022-11-05T15:07:02.112Z,3.47
2022-11-05T15:09:40.392Z,3.07
2022-11-05T15:12:18.506Z,3.53
2022-11-05T15:15:03.815Z,3.60
2022-11-05T15:17:40.820Z,3.23
2022-11-05T15:20:14.917Z,3.00
2022-11-05T15:22:44.617Z,3.00
2022-11-05T15:25:21.184Z,2.67
2022-11-05T15:27:58.418Z,3.47
2022-11-05T15:30:25.711Z,3.03
2022-11-05T15:32:52.397Z,3.20
2022-11-05T15:35:20.531Z,3.13
2022-11-05T15:37:53.374Z,3.27
2022-11-05T15:40:23.140Z,3.13
2022-11-05T15:43:17.317Z,3.60
2022-11-05T15:45:44.263Z,3.30
2022-11-05T15:48:15.674Z,2.87
2022-11-05T15:50:42.450Z,3.40
2022-11-05T15:53:47.343Z,3.30
2022-11-05T15:56:24.341Z,3.37
2022-11-05T15:58:54.578Z,3.40
2022-11-05T16:01:28.375Z,2.80
2022-11-05T16:04:20.839Z,3.47
2022-11-05T16:06:50.915Z,3.10
2022-11-05T16:09:29.351Z,3.63
2022-11-05T16:12:14.165Z,3.17
2022-11-05T16:14:41.527Z,3.40
2022-11-05T16:17:20.314Z,3.57
2022-11-05T16:19:47.554Z,3.57
2022-11-05T16:22:14.466Z,3.47
2022-11-05T16:24:41.371Z,3.37
2022-11-05T16:27:20.830Z,3.73
2022-11-05T16:29:56.265Z,3.20
2022-11-05T16:32:31.003Z,2.93
2022-11-05T16:35:00.785Z,3.23
2022-11-05T16:37:37.442Z,3.10
2022-11-05T16:40:14.279Z,2.87
2022-11-05T16:42:41.699Z,3.40
2022-11-05T16:45:12.072Z,3.33
2022-11-05T16:47:38.453Z,3.17
2022-11-05T16:50:25.011Z,3.53
2022-11-05T16:52:51.946Z,3.57
2022-11-05T16:55:19.285Z,3.17
2022-11-05T16:57:51.015Z,3.20
2022-11-05T17:00:20.214Z,3.40
2022-11-05T17:02:47.322Z,3.13
2022-11-05T17:05:27.497Z,3.00
2022-11-05T17:07:54.670Z,2.80
2022-11-05T17:10:22.627Z,3.17
2022-11-05T17:12:49.827Z,3.30
2022-11-05T17:15:26.671Z,3.77
2022-11-05T17:17:54.531Z,3.90
2022-11-05T17:20:20.888Z,3.50
2022-11-05T17:22:47.337Z,3.33
2022-11-05T17:25:13.742Z,3.23
2022-11-05T17:27:40.304Z,3.70
2022-11-05T17:30:07.501Z,3.30
2022-11-05T17:32:33.961Z,3.07
2022-11-05T17:35:00.412Z,2.97
2022-11-05T17:37:26.951Z,3.23
2022-11-05T17:39:53.381Z,3.43
2022-11-05T17:42:19.880Z,2.73
2022-11-05T17:44:46.268Z,3.03
2022-11-05T17:47:12.719Z,3.67
2022-11-05T17:49:39.164Z,3.17
2022-11-05T17:52:05.582Z,3.10
2022-11-05T17:54:32.079Z,3.57
2022-11-05T17:56:58.529Z,2.67
2022-11-05T17:59:24.949Z,3.07
2022-11-05T18:01:51.511Z,2.80
2022-11-05T18:04:18.153Z,3.33
2022-11-05T18:06:44.579Z,3.10
2022-11-05T18:09:11.674Z,3.03
2022-11-05T18:11:39.268Z,2.80
2022-11-05T18:14:06.523Z,3.97
2022-11-05T18:16:34.423Z,3.40
2022-11-05T18:19:01.534Z,4.73
2022-11-05T18:21:28.227Z,3.40
2022-11-05T18:23:54.675Z,3.50
2022-11-05T18:26:21.143Z,3.00
2022-11-05T18:28:47.568Z,2.80
2022-11-05T18:31:22.097Z,4.40
2022-11-05T18:33:49.962Z,3.83
2022-11-05T18:36:21.256Z,3.63
2022-11-05T18:38:48.246Z,4.00
2022-11-05T18:41:15.728Z,3.80
2022-11-05T18:43:42.154Z,3.77
2022-11-05T18:46:08.801Z,3.70
2022-11-05T18:48:35.972Z,5.03
2022-11-05T18:51:08.843Z,3.63
2022-11-05T18:53:35.261Z,3.77
2022-11-05T18:56:10.943Z,3.80
2022-11-05T18:58:38.495Z,3.20
2022-11-05T19:01:12.516Z,3.63
2022-11-05T19:03:39.061Z,3.20
2022-11-05T19:06:05.602Z,3.17
2022-11-05T19:08:33.087Z,4.10
2022-11-05T19:10:59.960Z,3.20
2022-11-05T19:13:26.832Z,3.50
2022-11-05T19:15:53.245Z,3.70
2022-11-05T19:18:19.711Z,3.43
2022-11-05T19:20:46.103Z,3.30
2022-11-05T19:23:12.582Z,3.20
2022-11-05T19:25:39.001Z,3.50
2022-11-05T19:28:05.687Z,3.53
2022-11-05T19:30:32.116Z,3.73
2022-11-05T19:32:58.617Z,3.57
2022-11-05T19:35:25.029Z,3.50
2022-11-05T19:37:53.513Z,4.10
2022-11-05T19:40:20.429Z,4.40
2022-11-05T19:42:47.200Z,3.00
2022-11-05T19:45:42.969Z,3.87
2022-11-05T19:48:00.454Z,2.90
2022-11-05T19:50:26.908Z,3.97
2022-11-05T19:52:53.338Z,3.60
2022-11-05T19:55:19.784Z,4.13
2022-11-05T19:57:46.264Z,4.47
2022-11-05T20:00:13.161Z,4.00
2022-11-05T20:02:45.275Z,3.67
2022-11-05T20:05:13.154Z,3.87
2022-11-05T20:07:40.258Z,4.90
2022-11-05T20:10:07.872Z,4.13
2022-11-05T20:12:35.894Z,4.13
2022-11-05T20:15:03.968Z,4.83
2022-11-05T20:17:30.836Z,5.17
2022-11-05T20:19:57.740Z,5.00
2022-11-05T20:22:24.449Z,5.23
2022-11-05T20:24:50.893Z,5.60
2022-11-05T20:27:17.645Z,5.93
2022-11-05T20:29:44.114Z,5.63
2022-11-05T20:32:12.403Z,5.00
2022-11-05T20:34:41.668Z,6.80
2022-11-05T20:37:08.127Z,5.57
2022-11-05T20:39:34.595Z,6.20
2022-11-05T20:42:01.037Z,5.63
2022-11-05T20:44:27.474Z,4.77
2022-11-05T20:46:53.944Z,6.00
2022-11-05T20:49:25.186Z,5.33
2022-11-05T20:51:52.160Z,4.53
2022-11-05T20:54:18.611Z,4.70
2022-11-05T20:56:45.028Z,4.87
2022-11-05T20:59:11.475Z,5.13
2022-11-05T21:01:38.192Z,4.37
2022-11-05T21:04:05.300Z,4.40
2022-11-05T21:06:33.068Z,4.20
2022-11-05T21:08:59.666Z,4.67
2022-11-05T21:11:26.340Z,4.23
2022-11-05T21:13:52.993Z,4.67
2022-11-05T21:16:19.950Z,4.67
2022-11-05T21:18:47.512Z,4.43
2022-11-05T21:21:19.771Z,4.23
2022-11-05T21:23:46.504Z,4.40
2022-11-05T21:26:14.880Z,4.60
2022-11-05T21:28:42.045Z,4.87
2022-11-05T21:31:09.110Z,4.53
2022-11-05T21:33:35.596Z,4.50
2022-11-05T21:36:12.794Z,4.43
2022-11-05T21:38:40.957Z,4.07
2022-11-05T21:41:09.754Z,4.13
2022-11-05T21:43:38.656Z,4.10
2022-11-05T21:46:05.503Z,4.53
2022-11-05T21:48:32.449Z,4.53
2022-11-05T21:51:17.537Z,3.97
2022-11-05T21:54:02.923Z,4.20
2022-11-05T21:56:48.396Z,4.27
2022-11-05T21:59:36.500Z,3.97
2022-11-05T22:02:03.851Z,4.83
2022-11-05T22:04:32.944Z,4.03
2022-11-05T22:07:00.249Z,4.67
2022-11-05T22:09:27.849Z,4.17
2022-11-05T22:11:54.646Z,3.87
2022-11-05T22:14:21.438Z,4.37
2022-11-05T22:16:47.919Z,4.13
2022-11-05T22:19:15.018Z,4.17
2022-11-05T22:21:41.726Z,3.20
2022-11-05T22:24:08.922Z,4.10
2022-11-05T22:26:36.541Z,4.20
2022-11-05T22:29:03.753Z,4.60
2022-11-05T22:31:35.678Z,4.10
2022-11-05T22:34:03.311Z,4.47
2022-11-05T22:36:29.873Z,3.93
2022-11-05T22:38:56.312Z,3.47
2022-11-05T22:41:22.792Z,4.03
2022-11-05T22:43:49.944Z,4.33
2022-11-05T22:46:20.232Z,3.83
2022-11-05T22:48:47.374Z,4.17
2022-11-05T22:51:16.561Z,4.10
2022-11-05T22:53:43.076Z,4.17
2022-11-05T22:56:12.050Z,4.27
2022-11-05T22:58:38.747Z,4.47
2022-11-05T23:01:06.651Z,3.97
2022-11-05T23:03:33.573Z,4.43
2022-11-05T23:06:02.542Z,4.03
2022-11-05T23:08:48.776Z,4.57
2022-11-05T23:11:38.314Z,4.27
2022-11-05T23:14:10.349Z,3.60
2022-11-05T23:16:55.934Z,4.20
2022-11-05T23:19:41.598Z,3.77
2022-11-05T23:22:38.593Z,3.83
2022-11-05T23:25:08.082Z,3.53
2022-11-05T23:27:36.857Z,3.70
2022-11-05T23:30:07.525Z,4.13
2022-11-05T23:32:34.229Z,4.10
2022-11-05T23:35:00.717Z,4.00
2022-11-05T23:37:48.371Z,4.13
2022-11-05T23:40:18.386Z,3.50
2022-11-05T23:43:04.462Z,4.03
2022-11-05T23:45:50.955Z,3.37
2022-11-05T23:48:35.699Z,3.83
2022-11-05T23:51:08.290Z,3.77
2022-11-05T23:53:36.724Z,3.23
2022-11-05T23:56:09.389Z,3.60
2022-11-05T23:58:36.981Z,4.07
